Strona główna
METAR-TAF:

METAR-TAF

Lotnisko :

Port lotniczy Warszawa-Modlin

Warszawa-Modlin, Polska

Szerokość geograficzna: 52-27-04N, Długość geograficzna: 020-39-06E, wysokość: 104 m

Aktualna obserwacja pogody

Raport powstał 17 minut temu, godzina 08:30 UTC
Wiatr 6 kt od południowy zachód, zmienny między południowo-południowy zachód i zachód
Temperatura 5°C
Wilgotność 70%
Ciśnienie 1021 hPa
Widzialność 10 km lub więcej
Mało chmury na wysokości 2100 ft

METAR: EPMO 230830Z 23006KT 200V260 9999 FEW021 05/M00 Q1021

czas: 10:47 (08:47 UTC)

Prognoza

Raport powstał 3 godziny i 17 minut temu, godzina 05:30 UTC
Prognoza ważna od 23 godzina 06 UTC do 24 godzina 06 UTC
Wiatr 5 kt od południowo-południowy zachód
Widzialność 10 km lub więcej
Rozproszone chmury na wysokości 4000 ft
Stopniowe zmiany
od 23 godzina 19 UTC do 23 godzina 22 UTC
Wiatr 10 kt od północno-północny wschód

TAF: EPMO 230530Z 2306/2406 20005KT 9999 SCT040 BECMG 2319/2322 03010KT

Obserwacja i prognoza pogody dla ponad 4000 lotnisk (raport METAR i TAF).

Dostępne stacje oznaczono żółtymi i czerwonymi punktami na mapie.

Najedź kursorem aby zobaczyć nazwę stacji.

Kliknij aby zobaczyć obserwacje i prognozy pogody.

Aby zmienić mapę: kliknij na zielony przycisk z czarnym krzyżykiem, aby powiększyć; na zielony przycisk z myślnikiem, aby pomniejszyć; na zielone strzałki, aby przejść do map sąsiednich.


METAR-TAF: